TimeCST,TemperatureF,Dew PointF,Humidity,Sea Level PressureIn,VisibilityMPH,Wind Direction,Wind SpeedMPH,Gust SpeedMPH,PrecipitationIn,Events,Conditions,WindDirDegrees,DateUTC
12:55 AM,61.3,57.6,87,29.99,10.0,East,5.8,-,N/A,,Mostly Cloudy,100,2012-12-07 06:55:00
1:55 AM,58.6,57.4,96,29.99,10.0,ENE,4.6,-,N/A,,Clear,70,2012-12-07 07:55:00
2:55 AM,57.9,57.6,99,29.98,10.0,ENE,4.6,-,N/A,,Clear,60,2012-12-07 08:55:00
3:55 AM,57.4,57.0,99,29.98,10.0,NE,3.5,-,N/A,,Clear,40,2012-12-07 09:55:00
4:55 AM,56.5,56.1,99,29.99,7.0,ENE,3.5,-,N/A,,Clear,70,2012-12-07 10:55:00
5:08 AM,57.2,57.2,100,30.00,8.0,ENE,3.5,-,N/A,,Partly Cloudy,60,2012-12-07 11:08:00
5:17 AM,57.2,57.2,100,30.00,8.0,East,3.5,-,N/A,,Partly Cloudy,80,2012-12-07 11:17:00
5:38 AM,57.2,57.2,100,30.00,9.0,ENE,4.6,-,N/A,,Mostly Cloudy,60,2012-12-07 11:38:00
5:51 AM,57.2,57.2,100,30.00,9.0,East,4.6,-,N/A,,Mostly Cloudy,80,2012-12-07 11:51:00
5:55 AM,57.0,56.8,99,30.00,9.0,ENE,3.5,-,N/A,,Mostly Cloudy,70,2012-12-07 11:55:00
6:05 AM,57.2,57.2,100,30.01,10.0,East,4.6,-,N/A,,Overcast,80,2012-12-07 12:05:00
6:26 AM,59.0,57.2,94,30.01,10.0,East,3.5,-,N/A,,Overcast,90,2012-12-07 12:26:00
6:27 AM,59.0,57.2,94,30.01,10.0,Variable,3.5,-,N/A,,Overcast,0,2012-12-07 12:27:00
6:31 AM,59.0,59.0,100,30.01,10.0,Variable,4.6,-,N/A,,Overcast,0,2012-12-07 12:31:00
6:38 AM,59.0,59.0,100,30.01,10.0,East,4.6,-,N/A,,Overcast,100,2012-12-07 12:38:00
6:48 AM,59.0,59.0,100,30.02,10.0,Variable,3.5,-,N/A,,Overcast,0,2012-12-07 12:48:00
6:51 AM,59.0,59.0,100,30.02,10.0,East,3.5,-,N/A,,Overcast,100,2012-12-07 12:51:00
6:55 AM,58.8,58.5,99,30.02,10.0,East,4.6,-,N/A,,Overcast,100,2012-12-07 12:55:00
7:02 AM,59.0,59.0,100,30.02,10.0,East,5.8,-,N/A,,Overcast,100,2012-12-07 13:02:00
7:18 AM,59.0,59.0,100,30.03,4.0,East,6.9,-,N/A,,Overcast,90,2012-12-07 13:18:00
7:22 AM,59.0,59.0,100,30.03,2.5,East,5.8,-,N/A,,Overcast,100,2012-12-07 13:22:00
7:25 AM,59.0,59.0,100,30.03,2.0,East,4.6,-,N/A,,Overcast,90,2012-12-07 13:25:00
7:31 AM,59.0,59.0,100,30.03,1.8,East,6.9,-,N/A,,Overcast,90,2012-12-07 13:31:00
7:52 AM,59.0,59.0,100,30.04,1.5,Calm,Calm,-,N/A,,Overcast,0,2012-12-07 13:52:00
7:55 AM,59.2,58.8,99,30.04,1.5,Calm,Calm,-,N/A,,Overcast,0,2012-12-07 13:55:00
8:08 AM,59.0,59.0,100,30.04,1.8,ESE,3.5,-,N/A,,Overcast,110,2012-12-07 14:08:00
8:09 AM,59.0,59.0,100,30.04,2.0,East,4.6,-,N/A,,Overcast,90,2012-12-07 14:09:00
8:20 AM,59.0,59.0,100,30.05,2.5,ESE,4.6,-,N/A,,Overcast,110,2012-12-07 14:20:00
8:30 AM,59.0,59.0,100,30.04,3.0,East,5.8,-,N/A,,Overcast,100,2012-12-07 14:30:00
8:55 AM,60.1,59.9,99,30.06,1.0,East,3.5,-,N/A,,Overcast,80,2012-12-07 14:55:00
9:22 AM,60.8,60.8,100,30.04,1.5,East,4.6,-,N/A,,Overcast,90,2012-12-07 15:22:00
9:57 AM,61.0,60.6,99,30.07,2.0,ENE,6.9,-,N/A,,Overcast,70,2012-12-07 15:57:00
10:16 AM,62.6,60.8,94,30.03,4.0,East,5.8,-,N/A,,Overcast,90,2012-12-07 16:16:00
10:55 AM,63.3,59.9,89,30.04,5.0,East,8.1,-,N/A,,Overcast,100,2012-12-07 16:55:00
11:28 AM,66.2,59.0,78,30.00,10.0,East,10.4,-,N/A,,Mostly Cloudy,90,2012-12-07 17:28:00
11:45 AM,64.4,59.0,83,30.00,10.0,East,6.9,-,N/A,,Mostly Cloudy,90,2012-12-07 17:45:00
11:55 AM,65.1,59.0,81,30.01,10.0,East,5.8,-,N/A,,Mostly Cloudy,90,2012-12-07 17:55:00
12:41 PM,68.0,59.0,73,29.97,10.0,ESE,6.9,-,N/A,,Mostly Cloudy,110,2012-12-07 18:41:00
12:55 PM,67.8,59.7,75,29.98,10.0,East,8.1,-,N/A,,Mostly Cloudy,90,2012-12-07 18:55:00
1:55 PM,66.4,59.7,79,29.96,10.0,SE,5.8,-,N/A,,Overcast,140,2012-12-07 19:55:00
2:55 PM,66.0,59.7,80,29.97,10.0,East,5.8,-,N/A,,Overcast,80,2012-12-07 20:55:00
3:55 PM,65.8,59.5,80,29.97,10.0,East,6.9,-,N/A,,Mostly Cloudy,80,2012-12-07 21:55:00
4:55 PM,65.1,59.4,82,29.98,10.0,East,4.6,-,N/A,,Overcast,100,2012-12-07 22:55:00
5:46 PM,64.4,59.0,83,29.96,10.0,East,4.6,-,N/A,,Overcast,100,2012-12-07 23:46:00
5:57 PM,64.4,59.2,83,29.97,10.0,East,5.8,-,N/A,,Overcast,100,2012-12-07 23:57:00
6:40 PM,64.4,59.0,83,29.96,10.0,East,4.6,-,N/A,,Scattered Clouds,100,2012-12-08 00:40:00
6:56 PM,63.1,59.2,87,29.97,10.0,East,4.6,-,N/A,,Scattered Clouds,90,2012-12-08 00:56:00
7:55 PM,61.5,59.0,91,29.99,10.0,SE,2.3,-,N/A,,Mostly Cloudy,130,2012-12-08 01:55:00
8:20 PM,60.8,59.0,94,29.98,10.0,ESE,2.3,-,N/A,,Mostly Cloudy,120,2012-12-08 02:20:00
8:57 PM,61.7,59.2,91,30.00,10.0,ESE,2.3,-,N/A,,Overcast,110,2012-12-08 02:57:00
9:57 PM,62.4,59.2,89,30.01,10.0,East,5.8,-,N/A,,Overcast,90,2012-12-08 03:57:00
10:56 PM,62.4,59.2,89,30.01,10.0,ESE,5.8,-,N/A,,Mostly Cloudy,120,2012-12-08 04:56:00
11:31 PM,62.6,59.0,88,29.99,10.0,ESE,5.8,-,N/A,,Mostly Cloudy,120,2012-12-08 05:31:00
11:56 PM,62.8,59.9,90,29.99,10.0,ESE,5.8,-,N/A,,Mostly Cloudy,120,2012-12-08 05:56:00